createdAt,value
2023-09-09T00:00:53.149Z,1.00
2023-09-09T00:03:20.962Z,1.00
2023-09-09T00:05:47.800Z,1.00
2023-09-09T00:08:14.602Z,1.00
2023-09-09T00:10:41.327Z,1.00
2023-09-09T00:13:08.208Z,1.00
2023-09-09T00:15:35.232Z,1.00
2023-09-09T00:18:05.778Z,1.00
2023-09-09T00:20:40.131Z,1.00
2023-09-09T00:23:09.721Z,1.00
2023-09-09T00:25:37.748Z,1.00
2023-09-09T00:28:05.587Z,1.00
2023-09-09T00:30:32.328Z,1.00
2023-09-09T00:32:59.868Z,1.00
2023-09-09T00:35:27.734Z,1.00
2023-09-09T00:37:55.749Z,1.00
2023-09-09T00:40:22.638Z,1.00
2023-09-09T00:42:49.461Z,1.00
2023-09-09T00:45:16.472Z,1.00
2023-09-09T00:47:43.401Z,1.00
2023-09-09T00:50:13.184Z,1.00
2023-09-09T00:52:40.754Z,1.00
2023-09-09T00:55:08.494Z,1.00
2023-09-09T00:57:35.354Z,1.00
2023-09-09T01:00:05.189Z,1.00
2023-09-09T01:02:32.742Z,1.00
2023-09-09T01:05:01.062Z,1.00
2023-09-09T01:07:28.908Z,1.00
2023-09-09T01:09:55.621Z,1.00
2023-09-09T01:12:25.605Z,1.00
2023-09-09T01:14:52.424Z,1.00
2023-09-09T01:17:19.524Z,1.00
2023-09-09T01:19:46.243Z,1.00
2023-09-09T01:22:19.019Z,1.00
2023-09-09T01:24:46.642Z,1.00
2023-09-09T01:27:13.421Z,1.00
2023-09-09T01:29:40.307Z,1.00
2023-09-09T01:32:07.050Z,1.00
2023-09-09T01:34:33.723Z,1.00
2023-09-09T01:37:00.573Z,1.00
2023-09-09T01:39:27.328Z,1.00
2023-09-09T01:41:54.299Z,1.00
2023-09-09T01:44:21.506Z,1.00
2023-09-09T01:46:48.246Z,1.00
2023-09-09T01:49:15.057Z,1.00
2023-09-09T01:51:41.832Z,1.00
2023-09-09T01:54:08.495Z,1.00
2023-09-09T01:56:35.218Z,1.00
2023-09-09T01:59:01.929Z,1.00
2023-09-09T02:01:28.948Z,1.00
2023-09-09T02:03:55.768Z,1.00
2023-09-09T02:06:22.665Z,1.00
2023-09-09T02:08:49.404Z,1.00
2023-09-09T02:11:16.128Z,1.00
2023-09-09T02:13:42.908Z,1.00
2023-09-09T02:16:09.703Z,1.00
2023-09-09T02:18:38.887Z,1.00
2023-09-09T02:21:06.395Z,1.00
2023-09-09T02:23:33.398Z,1.00
2023-09-09T02:26:00.365Z,1.00
2023-09-09T02:28:27.065Z,1.00
2023-09-09T02:30:53.769Z,1.00
2023-09-09T02:33:20.516Z,1.00
2023-09-09T02:35:47.280Z,1.00
2023-09-09T02:38:13.957Z,1.00
2023-09-09T02:40:40.619Z,1.00
2023-09-09T02:43:07.435Z,1.00
2023-09-09T02:45:34.103Z,1.00
2023-09-09T02:48:00.823Z,1.00
2023-09-09T02:50:27.508Z,1.00
2023-09-09T02:52:54.221Z,1.00
2023-09-09T02:55:20.946Z,1.00
2023-09-09T02:57:50.548Z,1.00
2023-09-09T03:00:17.353Z,1.00
2023-09-09T03:02:44.428Z,1.00
2023-09-09T03:05:12.034Z,1.00
2023-09-09T03:07:39.181Z,1.00
2023-09-09T03:10:06.674Z,1.00
2023-09-09T03:12:33.411Z,1.00
2023-09-09T03:15:00.319Z,1.00
2023-09-09T03:17:30.744Z,1.00
2023-09-09T03:19:57.794Z,1.00
2023-09-09T03:22:24.488Z,1.00
2023-09-09T03:24:52.140Z,1.00
2023-09-09T03:27:19.816Z,1.00
2023-09-09T03:29:46.502Z,1.00
2023-09-09T03:32:13.217Z,1.00
2023-09-09T03:34:40.240Z,1.00
2023-09-09T03:37:06.945Z,1.00
2023-09-09T03:39:33.726Z,1.00
2023-09-09T03:42:00.425Z,1.00
2023-09-09T03:44:27.098Z,1.00
2023-09-09T03:46:53.729Z,1.00
2023-09-09T03:49:20.426Z,1.00
2023-09-09T03:51:47.134Z,1.00
2023-09-09T03:54:13.831Z,1.00
2023-09-09T03:56:40.517Z,1.00
2023-09-09T03:59:07.218Z,1.00
2023-09-09T04:01:34.076Z,1.00
2023-09-09T04:04:00.878Z,1.00
2023-09-09T04:06:28.558Z,1.00
2023-09-09T04:08:57.694Z,1.00
2023-09-09T04:11:25.116Z,1.00
2023-09-09T04:13:51.963Z,1.00
2023-09-09T04:16:18.694Z,1.00
2023-09-09T04:18:46.833Z,1.00
2023-09-09T04:21:14.034Z,1.00
2023-09-09T04:23:41.144Z,1.00
2023-09-09T04:26:08.412Z,1.00
2023-09-09T04:28:35.231Z,1.00
2023-09-09T04:31:02.151Z,1.00
2023-09-09T04:33:28.986Z,1.00
2023-09-09T04:35:55.706Z,1.00
2023-09-09T04:38:24.255Z,1.00
2023-09-09T04:40:51.058Z,1.00
2023-09-09T04:43:19.226Z,1.00
2023-09-09T04:45:46.099Z,1.00
2023-09-09T04:48:13.023Z,1.00
2023-09-09T04:50:39.832Z,1.00
2023-09-09T04:53:06.814Z,1.00
2023-09-09T04:55:33.600Z,1.00
2023-09-09T04:58:00.685Z,1.00
2023-09-09T05:00:27.380Z,1.00
2023-09-09T05:02:54.114Z,1.00
2023-09-09T05:05:20.872Z,1.00
2023-09-09T05:07:47.689Z,1.00
2023-09-09T05:10:14.845Z,1.00
2023-09-09T05:12:44.334Z,1.00
2023-09-09T05:15:14.495Z,1.00
2023-09-09T05:17:41.468Z,1.00
2023-09-09T05:20:08.705Z,1.00
2023-09-09T05:22:35.404Z,1.00
2023-09-09T05:25:02.100Z,1.00
2023-09-09T05:27:28.818Z,1.00
2023-09-09T05:29:55.504Z,1.00
2023-09-09T05:32:23.217Z,1.00
2023-09-09T05:34:50.036Z,1.00
2023-09-09T05:37:16.943Z,1.00
2023-09-09T05:39:43.653Z,1.00
2023-09-09T05:42:10.353Z,1.00
2023-09-09T05:44:37.722Z,1.00
2023-09-09T05:47:09.404Z,1.00
2023-09-09T05:49:40.036Z,1.00
2023-09-09T05:52:08.111Z,1.00
2023-09-09T05:54:35.100Z,1.00
2023-09-09T05:57:01.996Z,1.00
2023-09-09T05:59:28.892Z,1.00
2023-09-09T06:01:55.685Z,1.00
2023-09-09T06:04:23.003Z,1.00
2023-09-09T06:06:49.950Z,1.00
2023-09-09T06:09:17.231Z,1.00
2023-09-09T06:11:44.068Z,1.00
2023-09-09T06:14:10.868Z,1.00
2023-09-09T06:16:37.700Z,1.00
2023-09-09T06:19:04.487Z,1.00
2023-09-09T06:21:31.254Z,1.00
2023-09-09T06:23:57.928Z,1.00
2023-09-09T06:26:24.647Z,1.00
2023-09-09T06:28:51.677Z,1.00
2023-09-09T06:31:18.418Z,1.00
2023-09-09T06:33:45.586Z,1.00
2023-09-09T06:36:12.706Z,1.00
2023-09-09T06:38:39.594Z,1.00
2023-09-09T06:41:06.414Z,1.00
2023-09-09T06:43:33.148Z,1.00
2023-09-09T06:46:03.516Z,1.00
2023-09-09T06:48:31.371Z,1.00
2023-09-09T06:50:58.201Z,1.00
2023-09-09T06:53:28.076Z,1.00
2023-09-09T06:55:54.825Z,1.00
2023-09-09T06:58:21.536Z,1.00
2023-09-09T07:00:52.184Z,1.00
2023-09-09T07:03:22.466Z,1.00
2023-09-09T07:05:49.793Z,1.00
2023-09-09T07:08:16.768Z,1.00
2023-09-09T07:10:53.359Z,1.00
2023-09-09T07:13:22.197Z,1.00
2023-09-09T07:15:55.070Z,1.00
2023-09-09T07:18:22.535Z,1.00
2023-09-09T07:20:50.082Z,1.00
2023-09-09T07:23:17.921Z,1.00
2023-09-09T07:25:45.408Z,1.00
2023-09-09T07:28:12.375Z,1.00
2023-09-09T07:30:39.610Z,1.00
2023-09-09T07:33:06.572Z,1.00
2023-09-09T07:35:36.457Z,1.00
2023-09-09T07:38:07.335Z,1.00
2023-09-09T07:40:34.295Z,1.00
2023-09-09T07:43:01.415Z,1.00
2023-09-09T07:45:28.919Z,1.00
2023-09-09T07:47:56.483Z,1.00
2023-09-09T07:50:23.289Z,1.00
2023-09-09T07:52:50.045Z,1.00
2023-09-09T07:55:16.759Z,1.00
2023-09-09T07:57:43.485Z,1.00
2023-09-09T08:00:10.987Z,1.00
2023-09-09T08:02:37.852Z,1.00
2023-09-09T08:05:07.305Z,1.00
2023-09-09T08:07:34.118Z,1.00
2023-09-09T08:10:00.883Z,1.00
2023-09-09T08:12:27.615Z,1.00
2023-09-09T08:15:05.606Z,1.00
2023-09-09T08:17:32.463Z,1.00
2023-09-09T08:19:59.202Z,1.00
2023-09-09T08:22:27.316Z,1.00
2023-09-09T08:24:54.087Z,1.00
2023-09-09T08:27:20.759Z,1.00
2023-09-09T08:29:47.498Z,1.00
2023-09-09T08:32:14.468Z,1.00
2023-09-09T08:34:43.043Z,1.00
2023-09-09T08:37:10.154Z,1.00
2023-09-09T08:39:36.920Z,1.00
2023-09-09T08:42:32.522Z,1.00
2023-09-09T08:45:17.798Z,1.00
2023-09-09T08:47:46.129Z,1.00
2023-09-09T08:50:14.725Z,1.00
2023-09-09T08:52:41.454Z,1.00
2023-09-09T08:55:09.051Z,1.00
2023-09-09T08:57:35.804Z,1.00
2023-09-09T09:00:05.207Z,1.00
2023-09-09T09:02:33.754Z,1.00
2023-09-09T09:05:00.738Z,1.00
2023-09-09T09:07:28.687Z,1.00
2023-09-09T09:09:55.920Z,1.00
2023-09-09T09:12:22.885Z,1.00
2023-09-09T09:14:49.729Z,1.00
2023-09-09T09:17:19.696Z,1.00
2023-09-09T09:19:46.581Z,1.00
2023-09-09T09:22:16.200Z,1.00
2023-09-09T09:24:46.842Z,1.00
2023-09-09T09:27:14.471Z,1.00
2023-09-09T09:29:42.320Z,1.00
2023-09-09T09:32:10.715Z,1.00
2023-09-09T09:34:37.428Z,1.00
2023-09-09T09:37:15.658Z,1.00
2023-09-09T09:39:44.349Z,1.00
2023-09-09T09:42:14.394Z,1.00
2023-09-09T09:44:41.191Z,1.00
2023-09-09T09:47:09.446Z,1.00
2023-09-09T09:49:37.905Z,1.00
2023-09-09T09:52:05.894Z,1.00
2023-09-09T09:54:35.899Z,1.00
2023-09-09T09:57:05.092Z,1.00
2023-09-09T09:59:33.920Z,1.00
2023-09-09T10:02:01.629Z,1.00
2023-09-09T10:04:29.256Z,1.00
2023-09-09T10:06:58.708Z,1.00
2023-09-09T10:09:37.479Z,1.00
2023-09-09T10:12:11.460Z,1.00
2023-09-09T10:14:39.285Z,1.00
2023-09-09T10:17:10.303Z,1.00
2023-09-09T10:19:40.022Z,1.00
2023-09-09T10:22:06.971Z,1.00
2023-09-09T10:24:37.126Z,1.00
2023-09-09T10:27:04.642Z,1.00
2023-09-09T10:29:32.505Z,1.00
2023-09-09T10:32:03.736Z,1.00
2023-09-09T10:34:31.905Z,1.00
2023-09-09T10:37:02.518Z,1.00
2023-09-09T10:39:30.011Z,1.00
2023-09-09T10:41:57.301Z,1.00
2023-09-09T10:44:24.473Z,1.00
2023-09-09T10:46:56.395Z,1.00
2023-09-09T10:49:31.937Z,1.00
2023-09-09T10:51:58.967Z,1.00
2023-09-09T10:54:27.277Z,1.00
2023-09-09T10:57:03.205Z,1.00
2023-09-09T10:59:32.823Z,1.00
2023-09-09T11:02:20.227Z,1.00
2023-09-09T11:05:12.465Z,1.00
2023-09-09T11:07:40.615Z,1.00
2023-09-09T11:10:07.901Z,1.00
2023-09-09T11:12:34.710Z,1.00
2023-09-09T11:15:11.180Z,1.00
2023-09-09T11:17:41.858Z,1.00
2023-09-09T11:20:12.297Z,1.00
2023-09-09T11:22:43.138Z,1.00
2023-09-09T11:25:09.995Z,1.00
2023-09-09T11:27:36.808Z,1.00
2023-09-09T11:30:03.798Z,1.00
2023-09-09T11:32:31.171Z,1.00
2023-09-09T11:34:58.643Z,1.00
2023-09-09T11:37:29.400Z,1.00
2023-09-09T11:39:56.969Z,1.00
2023-09-09T11:42:23.686Z,1.00
2023-09-09T11:44:50.593Z,1.00
2023-09-09T11:47:18.359Z,1.00
2023-09-09T11:49:46.787Z,1.00
2023-09-09T11:52:14.003Z,1.00
2023-09-09T11:54:44.107Z,1.00
2023-09-09T11:57:11.399Z,1.00
2023-09-09T11:59:52.067Z,1.00
2023-09-09T12:02:23.923Z,1.00
2023-09-09T12:05:01.522Z,1.00
2023-09-09T12:07:31.258Z,1.00
2023-09-09T12:09:59.557Z,1.00
2023-09-09T12:12:26.569Z,1.00
2023-09-09T12:14:54.367Z,1.00
2023-09-09T12:17:21.507Z,1.00
2023-09-09T12:19:58.610Z,1.00
2023-09-09T12:22:36.187Z,1.00
2023-09-09T12:25:08.191Z,1.00
2023-09-09T12:27:45.638Z,1.00
2023-09-09T12:30:38.570Z,1.00
2023-09-09T12:33:13.313Z,1.00
2023-09-09T12:35:44.186Z,1.00
2023-09-09T12:38:11.496Z,1.00
2023-09-09T12:41:03.848Z,1.00
2023-09-09T12:43:31.489Z,1.00
2023-09-09T12:46:05.651Z,1.00
2023-09-09T12:48:35.326Z,1.00
2023-09-09T12:51:02.039Z,1.00
2023-09-09T12:53:28.772Z,1.00
2023-09-09T12:55:55.481Z,1.00
2023-09-09T12:58:22.411Z,1.00
2023-09-09T13:00:49.087Z,1.00
2023-09-09T13:03:15.875Z,1.00
2023-09-09T13:05:42.719Z,1.00
2023-09-09T13:08:09.496Z,1.00
2023-09-09T13:10:36.265Z,1.00
2023-09-09T13:13:03.024Z,1.00
2023-09-09T13:15:29.844Z,1.00
2023-09-09T13:17:56.643Z,1.00
2023-09-09T13:20:23.525Z,1.00
2023-09-09T13:22:50.242Z,1.00
2023-09-09T13:25:16.953Z,1.00
2023-09-09T13:27:44.205Z,1.00
2023-09-09T13:30:11.345Z,1.00
2023-09-09T13:32:40.635Z,1.00
2023-09-09T13:35:09.034Z,1.00
2023-09-09T13:37:36.172Z,1.00
2023-09-09T13:40:03.006Z,1.00
2023-09-09T13:42:29.882Z,1.00
2023-09-09T13:47:26.674Z,1.00
2023-09-09T13:49:53.436Z,1.00
2023-09-09T13:52:20.349Z,1.00
2023-09-09T13:54:48.015Z,1.00
2023-09-09T13:57:14.751Z,1.00
2023-09-09T13:59:43.383Z,1.00
2023-09-09T14:02:10.122Z,1.00
2023-09-09T14:04:37.494Z,1.00
2023-09-09T14:07:04.879Z,1.00
2023-09-09T14:09:31.657Z,99.90
2023-09-09T14:11:58.353Z,99.90
2023-09-09T14:14:25.094Z,1.00
2023-09-09T14:16:52.246Z,99.90
2023-09-09T14:19:19.330Z,99.90
2023-09-09T14:21:46.063Z,99.90
2023-09-09T14:24:12.898Z,99.90
2023-09-09T14:26:39.729Z,99.90
2023-09-09T14:29:06.512Z,99.90
2023-09-09T14:31:33.224Z,99.90
2023-09-09T14:33:59.993Z,99.90
2023-09-09T14:36:26.776Z,99.90
2023-09-09T14:38:53.523Z,99.90
2023-09-09T14:41:20.262Z,99.90
2023-09-09T14:43:47.029Z,99.90
2023-09-09T14:46:13.787Z,99.90
2023-09-09T14:48:56.789Z,99.90
2023-09-09T14:51:23.542Z,99.90
2023-09-09T14:53:50.231Z,99.90
2023-09-09T14:56:17.031Z,99.90
2023-09-09T14:58:44.246Z,99.90
2023-09-09T15:01:10.936Z,99.90
2023-09-09T15:03:39.972Z,99.90
2023-09-09T15:06:06.960Z,99.90
2023-09-09T15:08:33.752Z,99.90
2023-09-09T15:11:00.416Z,99.90
2023-09-09T15:13:27.210Z,99.90
2023-09-09T15:15:53.888Z,99.90
2023-09-09T15:18:21.236Z,99.90
2023-09-09T15:20:47.985Z,99.90
2023-09-09T15:23:14.637Z,99.90
2023-09-09T15:25:41.320Z,99.90
2023-09-09T15:28:08.099Z,99.90
2023-09-09T15:30:35.059Z,99.90
2023-09-09T15:33:01.793Z,99.90
2023-09-09T15:35:29.704Z,99.90
2023-09-09T15:37:56.556Z,99.90
2023-09-09T15:40:23.400Z,99.90
2023-09-09T15:42:50.520Z,99.90
2023-09-09T15:45:17.284Z,99.90
2023-09-09T15:47:43.977Z,99.90
2023-09-09T15:50:11.391Z,99.90
2023-09-09T15:52:38.100Z,99.90
2023-09-09T15:55:05.007Z,99.90
2023-09-09T15:57:31.653Z,99.90
2023-09-09T15:59:58.401Z,99.90
2023-09-09T16:02:25.901Z,99.90
2023-09-09T16:04:52.730Z,99.90
2023-09-09T16:07:19.516Z,99.90
2023-09-09T16:09:46.365Z,99.90
2023-09-09T16:12:13.120Z,99.90
2023-09-09T16:14:39.837Z,99.90
2023-09-09T16:17:06.558Z,99.90
2023-09-09T16:19:33.368Z,99.90
2023-09-09T16:22:00.058Z,99.90
2023-09-09T16:24:26.722Z,99.90
2023-09-09T16:26:53.402Z,99.90
2023-09-09T16:29:20.110Z,25.20
2023-09-09T16:31:47.799Z,23.80
2023-09-09T16:34:14.577Z,76.10
2023-09-09T16:36:41.342Z,24.30
2023-09-09T16:39:08.038Z,84.90
2023-09-09T16:41:34.733Z,97.60
2023-09-09T16:44:01.389Z,91.30
2023-09-09T16:46:28.083Z,99.90
2023-09-09T16:48:55.021Z,99.90
2023-09-09T16:51:21.732Z,71.10
2023-09-09T16:53:48.908Z,99.90
2023-09-09T16:56:16.086Z,99.90
2023-09-09T16:58:42.823Z,99.90
2023-09-09T17:01:09.830Z,99.90
2023-09-09T17:03:36.756Z,99.90
2023-09-09T17:06:03.971Z,99.90
2023-09-09T17:08:30.678Z,99.90
2023-09-09T17:10:57.465Z,99.90
2023-09-09T17:13:24.330Z,99.90
2023-09-09T17:15:51.121Z,99.90
2023-09-09T17:18:17.837Z,99.90
2023-09-09T17:20:44.501Z,99.90
2023-09-09T17:23:11.207Z,99.90
2023-09-09T17:25:37.936Z,99.90
2023-09-09T17:28:05.640Z,99.90
2023-09-09T17:30:32.430Z,99.90
2023-09-09T17:32:59.414Z,99.90
2023-09-09T17:35:27.537Z,99.90
2023-09-09T17:37:54.919Z,99.90
2023-09-09T17:40:21.805Z,99.90
2023-09-09T17:42:48.516Z,99.90
2023-09-09T17:45:15.420Z,99.90
2023-09-09T17:47:44.852Z,99.90
2023-09-09T17:50:12.088Z,99.90
2023-09-09T17:52:40.989Z,99.90
2023-09-09T17:55:08.156Z,99.90
2023-09-09T17:57:35.120Z,99.90
2023-09-09T18:00:01.860Z,99.90
2023-09-09T18:02:28.585Z,99.90
2023-09-09T18:04:56.058Z,99.90
2023-09-09T18:07:22.792Z,99.90
2023-09-09T18:09:49.473Z,99.90
2023-09-09T18:12:16.152Z,1.00
2023-09-09T18:14:43.897Z,1.00
2023-09-09T18:17:11.020Z,1.00
2023-09-09T18:19:38.505Z,1.00
2023-09-09T18:22:05.405Z,1.00
2023-09-09T18:24:32.226Z,1.00
2023-09-09T18:26:58.915Z,1.00
2023-09-09T18:29:27.639Z,1.00
2023-09-09T18:31:54.557Z,1.00
2023-09-09T18:34:22.885Z,1.00
2023-09-09T18:36:49.577Z,1.00
2023-09-09T18:39:16.528Z,1.00
2023-09-09T18:41:43.214Z,1.00
2023-09-09T18:44:09.917Z,1.00
2023-09-09T18:46:37.213Z,1.00
2023-09-09T18:49:04.007Z,1.00
2023-09-09T18:51:30.753Z,1.00
2023-09-09T18:53:58.491Z,1.00
2023-09-09T18:56:25.432Z,1.00
2023-09-09T18:58:52.173Z,1.00
2023-09-09T19:01:18.957Z,1.00
2023-09-09T19:03:46.231Z,1.00
2023-09-09T19:06:13.066Z,1.00
2023-09-09T19:08:40.061Z,1.00
2023-09-09T19:11:07.223Z,1.00
2023-09-09T19:13:34.369Z,1.00
2023-09-09T19:16:01.235Z,1.00
2023-09-09T19:18:30.004Z,1.00
2023-09-09T19:20:56.950Z,1.00
2023-09-09T19:23:23.766Z,1.00
2023-09-09T19:25:55.174Z,1.00
2023-09-09T19:28:21.989Z,1.00
2023-09-09T19:30:48.774Z,1.00
2023-09-09T19:33:15.732Z,1.00
2023-09-09T19:35:42.843Z,1.00
2023-09-09T19:38:09.637Z,1.00
2023-09-09T19:40:36.379Z,1.00
2023-09-09T19:43:03.881Z,1.00
2023-09-09T19:45:30.690Z,1.00
2023-09-09T19:47:57.516Z,1.00
2023-09-09T19:50:24.251Z,1.00
2023-09-09T19:52:51.549Z,1.00
2023-09-09T19:55:18.284Z,1.00
2023-09-09T19:57:45.006Z,1.00
2023-09-09T20:00:12.581Z,1.00
2023-09-09T20:02:39.419Z,1.00
2023-09-09T20:05:06.604Z,1.00
2023-09-09T20:07:33.448Z,1.00
2023-09-09T20:10:10.960Z,1.00
2023-09-09T20:12:38.023Z,1.00
2023-09-09T20:15:05.283Z,1.00
2023-09-09T20:17:32.103Z,1.00
2023-09-09T20:19:59.357Z,1.00
2023-09-09T20:22:29.087Z,1.00
2023-09-09T20:24:56.345Z,1.00
2023-09-09T20:27:23.100Z,1.00
2023-09-09T20:29:49.787Z,1.00
2023-09-09T20:32:16.493Z,1.00
2023-09-09T20:34:43.244Z,1.00
2023-09-09T20:37:10.275Z,1.00
2023-09-09T20:39:37.872Z,1.00
2023-09-09T20:42:04.769Z,1.00
2023-09-09T20:44:31.937Z,1.00
2023-09-09T20:46:59.206Z,1.00
2023-09-09T20:49:25.999Z,1.00
2023-09-09T20:51:54.296Z,1.00
2023-09-09T20:54:21.372Z,1.00
2023-09-09T20:56:48.106Z,1.00
2023-09-09T20:59:14.822Z,1.00
2023-09-09T21:01:45.231Z,1.00
2023-09-09T21:04:12.327Z,1.00
2023-09-09T21:06:39.537Z,1.00
2023-09-09T21:09:06.459Z,1.00
2023-09-09T21:11:33.151Z,1.00
2023-09-09T21:13:59.854Z,1.00
2023-09-09T21:16:26.758Z,1.00
2023-09-09T21:18:53.557Z,1.00
2023-09-09T21:21:20.468Z,1.00
2023-09-09T21:23:47.307Z,1.00
2023-09-09T21:26:14.206Z,1.00
2023-09-09T21:28:41.220Z,1.00
2023-09-09T21:31:08.150Z,1.00
2023-09-09T21:33:35.298Z,1.00
2023-09-09T21:36:02.128Z,1.00
2023-09-09T21:38:28.759Z,1.00
2023-09-09T21:40:55.632Z,1.00
2023-09-09T21:43:22.467Z,1.00
2023-09-09T21:45:49.188Z,1.00
2023-09-09T21:48:15.966Z,1.00
2023-09-09T21:50:42.739Z,1.00
2023-09-09T21:53:09.520Z,1.00
2023-09-09T21:55:36.353Z,1.00
2023-09-09T21:58:03.918Z,1.00
2023-09-09T22:00:30.715Z,1.00
2023-09-09T22:02:57.490Z,1.00
2023-09-09T22:05:24.280Z,1.00
2023-09-09T22:07:51.073Z,1.00
2023-09-09T22:10:18.005Z,1.00
2023-09-09T22:12:45.035Z,1.00
2023-09-09T22:15:12.055Z,1.00
2023-09-09T22:17:39.726Z,1.00
2023-09-09T22:20:12.511Z,1.00
2023-09-09T22:22:40.911Z,1.00
2023-09-09T22:25:12.429Z,1.00
2023-09-09T22:27:39.209Z,1.00
2023-09-09T22:30:06.736Z,1.00
2023-09-09T22:32:34.411Z,1.00
2023-09-09T22:35:06.780Z,1.00
2023-09-09T22:37:35.134Z,1.00
2023-09-09T22:40:02.042Z,1.00
2023-09-09T22:42:28.700Z,1.00
2023-09-09T22:44:55.381Z,1.00
2023-09-09T22:47:23.221Z,1.00
2023-09-09T22:49:53.637Z,1.00
2023-09-09T22:52:20.866Z,1.00
2023-09-09T22:54:47.714Z,1.00
2023-09-09T22:57:14.632Z,1.00
2023-09-09T22:59:41.315Z,1.00
2023-09-09T23:02:08.077Z,1.00
2023-09-09T23:04:34.956Z,1.00
2023-09-09T23:07:01.828Z,1.00
2023-09-09T23:09:28.554Z,1.00
2023-09-09T23:11:55.240Z,1.00
2023-09-09T23:14:23.932Z,1.00
2023-09-09T23:16:51.135Z,1.00
2023-09-09T23:19:17.983Z,1.00
2023-09-09T23:21:44.843Z,1.00
2023-09-09T23:24:11.885Z,1.00
2023-09-09T23:26:38.800Z,1.00
2023-09-09T23:29:06.189Z,1.00
2023-09-09T23:31:33.600Z,1.00
2023-09-09T23:34:01.544Z,1.00
2023-09-09T23:36:28.264Z,1.00
2023-09-09T23:38:54.966Z,1.00
2023-09-09T23:41:21.679Z,1.00
2023-09-09T23:43:48.527Z,1.00
2023-09-09T23:46:15.373Z,1.00
2023-09-09T23:48:42.238Z,1.00
2023-09-09T23:51:09.014Z,1.00
2023-09-09T23:53:35.744Z,1.00
2023-09-09T23:56:02.839Z,1.00
2023-09-09T23:58:30.031Z,1.00
